sensor_id;sensor_type;location;lat;lon;timestamp;P1;durP1;ratioP1;P2;durP2;ratioP2
51588;SDS011;37671;53.258;6.460;2022-12-18T00:01:29;77.03;;;30.13;;
51588;SDS011;37671;53.258;6.460;2022-12-18T00:04:00;84.83;;;31.27;;
51588;SDS011;37671;53.258;6.460;2022-12-18T00:06:28;85.28;;;30.50;;
51588;SDS011;37671;53.258;6.460;2022-12-18T00:08:54;76.90;;;28.45;;
51588;SDS011;37671;53.258;6.460;2022-12-18T00:11:22;81.93;;;29.20;;
51588;SDS011;37671;53.258;6.460;2022-12-18T00:13:53;78.88;;;29.27;;
51588;SDS011;37671;53.258;6.460;2022-12-18T00:16:20;71.25;;;27.33;;
51588;SDS011;37671;53.258;6.460;2022-12-18T00:18:48;78.90;;;28.67;;
51588;SDS011;37671;53.258;6.460;2022-12-18T00:21:15;72.90;;;29.02;;
51588;SDS011;37671;53.258;6.460;2022-12-18T00:23:41;76.15;;;29.55;;
51588;SDS011;37671;53.258;6.460;2022-12-18T00:26:16;79.40;;;29.33;;
51588;SDS011;37671;53.258;6.460;2022-12-18T00:28:47;75.07;;;29.80;;
51588;SDS011;37671;53.258;6.460;2022-12-18T00:31:17;76.43;;;30.25;;
51588;SDS011;37671;53.258;6.460;2022-12-18T00:33:45;76.13;;;28.27;;
51588;SDS011;37671;53.258;6.460;2022-12-18T00:36:16;75.47;;;29.08;;
51588;SDS011;37671;53.258;6.460;2022-12-18T00:38:45;80.03;;;29.83;;
51588;SDS011;37671;53.258;6.460;2022-12-18T00:41:12;75.80;;;29.27;;
51588;SDS011;37671;53.258;6.460;2022-12-18T00:43:59;78.10;;;28.23;;
51588;SDS011;37671;53.258;6.460;2022-12-18T00:46:25;74.20;;;28.75;;
51588;SDS011;37671;53.258;6.460;2022-12-18T00:48:50;76.57;;;28.23;;
51588;SDS011;37671;53.258;6.460;2022-12-18T00:51:16;75.63;;;27.90;;
51588;SDS011;37671;53.258;6.460;2022-12-18T00:53:42;78.80;;;29.20;;
51588;SDS011;37671;53.258;6.460;2022-12-18T00:56:07;77.13;;;29.50;;
51588;SDS011;37671;53.258;6.460;2022-12-18T00:58:36;80.72;;;29.67;;
51588;SDS011;37671;53.258;6.460;2022-12-18T01:01:03;78.80;;;29.05;;
51588;SDS011;37671;53.258;6.460;2022-12-18T01:03:30;76.82;;;28.40;;
51588;SDS011;37671;53.258;6.460;2022-12-18T01:05:55;74.38;;;28.58;;
51588;SDS011;37671;53.258;6.460;2022-12-18T01:08:21;73.75;;;27.95;;
51588;SDS011;37671;53.258;6.460;2022-12-18T01:10:47;80.88;;;29.58;;
51588;SDS011;37671;53.258;6.460;2022-12-18T01:13:12;80.13;;;27.33;;
51588;SDS011;37671;53.258;6.460;2022-12-18T01:15:38;74.55;;;28.73;;
51588;SDS011;37671;53.258;6.460;2022-12-18T01:18:05;74.00;;;27.95;;
51588;SDS011;37671;53.258;6.460;2022-12-18T01:20:31;76.70;;;28.02;;
51588;SDS011;37671;53.258;6.460;2022-12-18T01:22:57;74.43;;;29.00;;
51588;SDS011;37671;53.258;6.460;2022-12-18T01:25:23;72.30;;;26.20;;
51588;SDS011;37671;53.258;6.460;2022-12-18T01:27:49;75.13;;;28.23;;
51588;SDS011;37671;53.258;6.460;2022-12-18T01:30:14;77.03;;;28.30;;
51588;SDS011;37671;53.258;6.460;2022-12-18T01:32:40;67.43;;;26.20;;
51588;SDS011;37671;53.258;6.460;2022-12-18T01:35:06;79.50;;;27.35;;
51588;SDS011;37671;53.258;6.460;2022-12-18T01:37:32;72.50;;;25.98;;
51588;SDS011;37671;53.258;6.460;2022-12-18T01:39:57;68.63;;;25.98;;
51588;SDS011;37671;53.258;6.460;2022-12-18T01:42:23;69.15;;;25.63;;
51588;SDS011;37671;53.258;6.460;2022-12-18T01:44:53;70.53;;;26.42;;
51588;SDS011;37671;53.258;6.460;2022-12-18T01:49:50;69.55;;;25.45;;
51588;SDS011;37671;53.258;6.460;2022-12-18T01:52:16;65.03;;;25.90;;
51588;SDS011;37671;53.258;6.460;2022-12-18T01:54:43;71.63;;;27.17;;
51588;SDS011;37671;53.258;6.460;2022-12-18T01:57:10;66.63;;;24.75;;
51588;SDS011;37671;53.258;6.460;2022-12-18T01:59:36;69.10;;;25.25;;
51588;SDS011;37671;53.258;6.460;2022-12-18T02:02:02;64.95;;;25.27;;
51588;SDS011;37671;53.258;6.460;2022-12-18T02:04:28;63.63;;;23.95;;
51588;SDS011;37671;53.258;6.460;2022-12-18T02:07:06;67.82;;;25.23;;
51588;SDS011;37671;53.258;6.460;2022-12-18T02:09:57;64.25;;;25.52;;
51588;SDS011;37671;53.258;6.460;2022-12-18T02:12:49;63.13;;;23.63;;
51588;SDS011;37671;53.258;6.460;2022-12-18T02:18:12;60.63;;;24.23;;
51588;SDS011;37671;53.258;6.460;2022-12-18T02:21:08;60.92;;;24.75;;
51588;SDS011;37671;53.258;6.460;2022-12-18T02:26:28;60.42;;;23.33;;
51588;SDS011;37671;53.258;6.460;2022-12-18T02:29:08;58.78;;;23.27;;
51588;SDS011;37671;53.258;6.460;2022-12-18T07:03:53;48.97;;;19.73;;
51588;SDS011;37671;53.258;6.460;2022-12-18T07:06:20;46.08;;;18.33;;
51588;SDS011;37671;53.258;6.460;2022-12-18T07:08:47;51.40;;;20.23;;
51588;SDS011;37671;53.258;6.460;2022-12-18T07:11:14;47.38;;;18.63;;
51588;SDS011;37671;53.258;6.460;2022-12-18T07:13:41;45.65;;;18.58;;
51588;SDS011;37671;53.258;6.460;2022-12-18T07:16:07;48.58;;;19.23;;
51588;SDS011;37671;53.258;6.460;2022-12-18T07:18:34;45.60;;;17.95;;
51588;SDS011;37671;53.258;6.460;2022-12-18T07:21:04;41.90;;;17.70;;
51588;SDS011;37671;53.258;6.460;2022-12-18T07:23:31;45.25;;;19.10;;
51588;SDS011;37671;53.258;6.460;2022-12-18T07:26:00;35.88;;;16.38;;
51588;SDS011;37671;53.258;6.460;2022-12-18T07:28:29;44.55;;;17.13;;
51588;SDS011;37671;53.258;6.460;2022-12-18T07:30:55;39.83;;;17.77;;
51588;SDS011;37671;53.258;6.460;2022-12-18T07:33:20;39.25;;;18.65;;
51588;SDS011;37671;53.258;6.460;2022-12-18T07:35:46;39.15;;;17.65;;
51588;SDS011;37671;53.258;6.460;2022-12-18T07:38:11;31.02;;;14.57;;
51588;SDS011;37671;53.258;6.460;2022-12-18T07:40:37;40.97;;;16.55;;
51588;SDS011;37671;53.258;6.460;2022-12-18T07:43:03;38.85;;;16.17;;
51588;SDS011;37671;53.258;6.460;2022-12-18T07:45:28;41.35;;;17.00;;
51588;SDS011;37671;53.258;6.460;2022-12-18T07:47:55;41.38;;;17.13;;
51588;SDS011;37671;53.258;6.460;2022-12-18T07:50:21;33.47;;;15.35;;
51588;SDS011;37671;53.258;6.460;2022-12-18T07:52:46;38.65;;;16.42;;
51588;SDS011;37671;53.258;6.460;2022-12-18T07:55:12;36.45;;;16.80;;
51588;SDS011;37671;53.258;6.460;2022-12-18T07:57:38;37.78;;;17.20;;
51588;SDS011;37671;53.258;6.460;2022-12-18T08:00:04;33.17;;;16.45;;
51588;SDS011;37671;53.258;6.460;2022-12-18T08:02:30;33.00;;;16.10;;
51588;SDS011;37671;53.258;6.460;2022-12-18T08:04:56;31.60;;;15.05;;
51588;SDS011;37671;53.258;6.460;2022-12-18T08:07:22;36.28;;;14.90;;
51588;SDS011;37671;53.258;6.460;2022-12-18T08:09:47;33.28;;;15.60;;
51588;SDS011;37671;53.258;6.460;2022-12-18T08:12:13;31.27;;;16.08;;
51588;SDS011;37671;53.258;6.460;2022-12-18T08:14:39;34.10;;;15.75;;
51588;SDS011;37671;53.258;6.460;2022-12-18T08:17:04;34.50;;;15.43;;
51588;SDS011;37671;53.258;6.460;2022-12-18T08:19:30;30.92;;;15.10;;
51588;SDS011;37671;53.258;6.460;2022-12-18T08:21:55;34.40;;;15.57;;
51588;SDS011;37671;53.258;6.460;2022-12-18T08:24:21;34.55;;;16.25;;
51588;SDS011;37671;53.258;6.460;2022-12-18T08:26:47;32.25;;;15.27;;
51588;SDS011;37671;53.258;6.460;2022-12-18T08:29:13;31.52;;;14.93;;
51588;SDS011;37671;53.258;6.460;2022-12-18T08:31:38;35.53;;;15.77;;
51588;SDS011;37671;53.258;6.460;2022-12-18T08:34:04;24.90;;;12.80;;
51588;SDS011;37671;53.258;6.460;2022-12-18T08:36:30;33.97;;;16.00;;
51588;SDS011;37671;53.258;6.460;2022-12-18T08:38:56;33.67;;;16.42;;
51588;SDS011;37671;53.258;6.460;2022-12-18T08:41:21;32.30;;;15.93;;
51588;SDS011;37671;53.258;6.460;2022-12-18T08:43:47;32.22;;;15.55;;
51588;SDS011;37671;53.258;6.460;2022-12-18T08:46:34;29.92;;;15.75;;
51588;SDS011;37671;53.258;6.460;2022-12-18T08:49:05;32.65;;;16.95;;
51588;SDS011;37671;53.258;6.460;2022-12-18T08:51:31;29.63;;;15.45;;
51588;SDS011;37671;53.258;6.460;2022-12-18T08:53:57;31.25;;;15.15;;
51588;SDS011;37671;53.258;6.460;2022-12-18T08:56:23;32.80;;;14.75;;
51588;SDS011;37671;53.258;6.460;2022-12-18T08:58:51;29.80;;;15.18;;
51588;SDS011;37671;53.258;6.460;2022-12-18T09:01:19;27.25;;;14.82;;
51588;SDS011;37671;53.258;6.460;2022-12-18T09:03:46;28.50;;;15.63;;
51588;SDS011;37671;53.258;6.460;2022-12-18T09:06:15;31.33;;;15.88;;
51588;SDS011;37671;53.258;6.460;2022-12-18T09:08:42;28.67;;;15.88;;
51588;SDS011;37671;53.258;6.460;2022-12-18T09:11:15;29.92;;;15.60;;
51588;SDS011;37671;53.258;6.460;2022-12-18T09:13:45;30.93;;;15.77;;
51588;SDS011;37671;53.258;6.460;2022-12-18T09:16:11;26.55;;;13.77;;
51588;SDS011;37671;53.258;6.460;2022-12-18T09:18:36;40.42;;;16.48;;
51588;SDS011;37671;53.258;6.460;2022-12-18T09:21:12;31.10;;;15.40;;
51588;SDS011;37671;53.258;6.460;2022-12-18T09:23:39;26.35;;;14.75;;
51588;SDS011;37671;53.258;6.460;2022-12-18T09:26:05;23.35;;;12.80;;
51588;SDS011;37671;53.258;6.460;2022-12-18T09:28:31;25.92;;;12.90;;
51588;SDS011;37671;53.258;6.460;2022-12-18T09:30:57;28.08;;;13.00;;
51588;SDS011;37671;53.258;6.460;2022-12-18T09:33:22;38.78;;;14.52;;
51588;SDS011;37671;53.258;6.460;2022-12-18T09:35:48;28.20;;;13.25;;
51588;SDS011;37671;53.258;6.460;2022-12-18T09:38:14;27.25;;;12.55;;
51588;SDS011;37671;53.258;6.460;2022-12-18T09:40:42;26.65;;;13.65;;
51588;SDS011;37671;53.258;6.460;2022-12-18T09:43:14;23.02;;;12.52;;
51588;SDS011;37671;53.258;6.460;2022-12-18T09:46:10;22.55;;;12.52;;
51588;SDS011;37671;53.258;6.460;2022-12-18T09:48:42;25.40;;;12.50;;
51588;SDS011;37671;53.258;6.460;2022-12-18T09:53:50;26.45;;;12.75;;
51588;SDS011;37671;53.258;6.460;2022-12-18T09:56:20;22.65;;;12.13;;
51588;SDS011;37671;53.258;6.460;2022-12-18T09:58:57;24.60;;;12.48;;
51588;SDS011;37671;53.258;6.460;2022-12-18T10:01:24;25.25;;;12.75;;
51588;SDS011;37671;53.258;6.460;2022-12-18T10:03:52;21.48;;;11.43;;
51588;SDS011;37671;53.258;6.460;2022-12-18T10:06:27;24.33;;;12.45;;
51588;SDS011;37671;53.258;6.460;2022-12-18T10:14:43;22.10;;;12.18;;
51588;SDS011;37671;53.258;6.460;2022-12-18T10:17:40;22.98;;;11.20;;
51588;SDS011;37671;53.258;6.460;2022-12-18T10:22:48;24.00;;;11.23;;
51588;SDS011;37671;53.258;6.460;2022-12-18T10:28:15;21.13;;;11.23;;
51588;SDS011;37671;53.258;6.460;2022-12-18T10:30:42;18.85;;;10.93;;
51588;SDS011;37671;53.258;6.460;2022-12-18T10:33:12;23.15;;;11.15;;
51588;SDS011;37671;53.258;6.460;2022-12-18T10:35:43;19.25;;;10.55;;
51588;SDS011;37671;53.258;6.460;2022-12-18T10:40:53;21.00;;;11.25;;
51588;SDS011;37671;53.258;6.460;2022-12-18T10:46:07;18.98;;;10.05;;
51588;SDS011;37671;53.258;6.460;2022-12-18T10:51:07;16.88;;;9.52;;
51588;SDS011;37671;53.258;6.460;2022-12-18T10:53:34;16.08;;;9.30;;
51588;SDS011;37671;53.258;6.460;2022-12-18T10:56:02;17.55;;;8.55;;
51588;SDS011;37671;53.258;6.460;2022-12-18T10:58:32;17.70;;;8.95;;
51588;SDS011;37671;53.258;6.460;2022-12-18T11:01:16;12.73;;;8.15;;
51588;SDS011;37671;53.258;6.460;2022-12-18T11:06:23;12.85;;;7.43;;
51588;SDS011;37671;53.258;6.460;2022-12-18T11:09:00;13.77;;;7.78;;
51588;SDS011;37671;53.258;6.460;2022-12-18T11:11:28;15.18;;;8.02;;
51588;SDS011;37671;53.258;6.460;2022-12-18T11:14:02;17.45;;;9.27;;
51588;SDS011;37671;53.258;6.460;2022-12-18T11:16:42;15.27;;;8.07;;
51588;SDS011;37671;53.258;6.460;2022-12-18T11:19:55;13.18;;;7.88;;
51588;SDS011;37671;53.258;6.460;2022-12-18T11:22:03;14.77;;;7.25;;
51588;SDS011;37671;53.258;6.460;2022-12-18T11:24:52;15.30;;;7.63;;
51588;SDS011;37671;53.258;6.460;2022-12-18T11:30:10;12.98;;;7.43;;
51588;SDS011;37671;53.258;6.460;2022-12-18T11:38:22;11.85;;;6.93;;
51588;SDS011;37671;53.258;6.460;2022-12-18T11:41:07;10.15;;;6.18;;
51588;SDS011;37671;53.258;6.460;2022-12-18T11:43:50;13.23;;;6.22;;
51588;SDS011;37671;53.258;6.460;2022-12-18T11:46:43;9.27;;;5.80;;
51588;SDS011;37671;53.258;6.460;2022-12-18T11:49:25;10.75;;;6.13;;
51588;SDS011;37671;53.258;6.460;2022-12-18T11:54:34;11.43;;;5.95;;
51588;SDS011;37671;53.258;6.460;2022-12-18T11:57:04;13.35;;;6.13;;
51588;SDS011;37671;53.258;6.460;2022-12-18T12:02:32;9.60;;;5.60;;
51588;SDS011;37671;53.258;6.460;2022-12-18T12:13:07;9.25;;;5.13;;
51588;SDS011;37671;53.258;6.460;2022-12-18T12:15:58;8.32;;;5.30;;
51588;SDS011;37671;53.258;6.460;2022-12-18T12:18:29;9.18;;;4.90;;
51588;SDS011;37671;53.258;6.460;2022-12-18T12:26:22;9.45;;;5.47;;
51588;SDS011;37671;53.258;6.460;2022-12-18T12:29:21;8.77;;;5.35;;
51588;SDS011;37671;53.258;6.460;2022-12-18T12:32:02;11.68;;;5.57;;
51588;SDS011;37671;53.258;6.460;2022-12-18T12:37:32;9.32;;;4.80;;
51588;SDS011;37671;53.258;6.460;2022-12-18T12:40:11;9.75;;;5.00;;
51588;SDS011;37671;53.258;6.460;2022-12-18T12:42:43;9.05;;;4.95;;
51588;SDS011;37671;53.258;6.460;2022-12-18T12:48:30;9.20;;;5.03;;
51588;SDS011;37671;53.258;6.460;2022-12-18T12:51:04;11.43;;;5.40;;
51588;SDS011;37671;53.258;6.460;2022-12-18T12:53:54;9.82;;;4.38;;
51588;SDS011;37671;53.258;6.460;2022-12-18T12:56:23;10.25;;;5.07;;
51588;SDS011;37671;53.258;6.460;2022-12-18T12:59:04;9.45;;;4.93;;
51588;SDS011;37671;53.258;6.460;2022-12-18T13:04:27;8.88;;;4.72;;
51588;SDS011;37671;53.258;6.460;2022-12-18T13:07:24;10.13;;;4.68;;
51588;SDS011;37671;53.258;6.460;2022-12-18T13:12:51;8.10;;;4.50;;
51588;SDS011;37671;53.258;6.460;2022-12-18T13:15:29;9.02;;;4.28;;
51588;SDS011;37671;53.258;6.460;2022-12-18T13:20:34;8.30;;;4.40;;
51588;SDS011;37671;53.258;6.460;2022-12-18T13:25:52;9.90;;;4.32;;
51588;SDS011;37671;53.258;6.460;2022-12-18T13:28:22;8.95;;;4.05;;
51588;SDS011;37671;53.258;6.460;2022-12-18T13:30:58;8.00;;;4.10;;
51588;SDS011;37671;53.258;6.460;2022-12-18T13:36:03;7.40;;;3.75;;
51588;SDS011;37671;53.258;6.460;2022-12-18T13:38:39;9.60;;;4.93;;
51588;SDS011;37671;53.258;6.460;2022-12-18T13:43:45;9.30;;;4.90;;
51588;SDS011;37671;53.258;6.460;2022-12-18T13:51:43;8.57;;;4.88;;
51588;SDS011;37671;53.258;6.460;2022-12-18T13:54:24;8.57;;;4.43;;
51588;SDS011;37671;53.258;6.460;2022-12-18T13:57:05;9.32;;;4.55;;
51588;SDS011;37671;53.258;6.460;2022-12-18T13:59:50;9.52;;;4.10;;
51588;SDS011;37671;53.258;6.460;2022-12-18T14:02:17;8.65;;;4.88;;
51588;SDS011;37671;53.258;6.460;2022-12-18T14:04:46;9.23;;;4.32;;
51588;SDS011;37671;53.258;6.460;2022-12-18T14:09:49;9.30;;;4.43;;
51588;SDS011;37671;53.258;6.460;2022-12-18T14:12:25;9.45;;;4.78;;
51588;SDS011;37671;53.258;6.460;2022-12-18T14:17:50;8.98;;;4.90;;
51588;SDS011;37671;53.258;6.460;2022-12-18T14:20:24;10.00;;;5.13;;
51588;SDS011;37671;53.258;6.460;2022-12-18T14:22:51;7.50;;;4.50;;
51588;SDS011;37671;53.258;6.460;2022-12-18T14:25:22;8.20;;;5.07;;
51588;SDS011;37671;53.258;6.460;2022-12-18T14:27:53;13.82;;;6.70;;
51588;SDS011;37671;53.258;6.460;2022-12-18T14:30:38;14.95;;;6.60;;
51588;SDS011;37671;53.258;6.460;2022-12-18T14:33:09;10.30;;;4.82;;
51588;SDS011;37671;53.258;6.460;2022-12-18T14:35:38;11.15;;;4.93;;
51588;SDS011;37671;53.258;6.460;2022-12-18T14:40:57;9.73;;;4.68;;
51588;SDS011;37671;53.258;6.460;2022-12-18T14:43:23;8.48;;;4.95;;
51588;SDS011;37671;53.258;6.460;2022-12-18T14:45:50;10.23;;;4.82;;
51588;SDS011;37671;53.258;6.460;2022-12-18T14:48:18;9.20;;;5.00;;
51588;SDS011;37671;53.258;6.460;2022-12-18T14:50:44;10.73;;;5.40;;
51588;SDS011;37671;53.258;6.460;2022-12-18T14:55:47;11.10;;;5.25;;
51588;SDS011;37671;53.258;6.460;2022-12-18T14:58:14;7.90;;;4.72;;
51588;SDS011;37671;53.258;6.460;2022-12-18T15:00:42;10.27;;;5.45;;
51588;SDS011;37671;53.258;6.460;2022-12-18T15:03:08;10.25;;;5.47;;
51588;SDS011;37671;53.258;6.460;2022-12-18T15:05:35;9.18;;;4.90;;
51588;SDS011;37671;53.258;6.460;2022-12-18T15:08:00;9.63;;;4.72;;
51588;SDS011;37671;53.258;6.460;2022-12-18T15:10:47;8.70;;;5.03;;
51588;SDS011;37671;53.258;6.460;2022-12-18T15:13:22;10.98;;;5.40;;
51588;SDS011;37671;53.258;6.460;2022-12-18T15:15:49;10.18;;;5.43;;
51588;SDS011;37671;53.258;6.460;2022-12-18T15:18:16;10.27;;;5.70;;
51588;SDS011;37671;53.258;6.460;2022-12-18T15:28:33;11.10;;;5.07;;
51588;SDS011;37671;53.258;6.460;2022-12-18T15:31:03;10.85;;;6.03;;
51588;SDS011;37671;53.258;6.460;2022-12-18T15:33:33;11.18;;;6.07;;
51588;SDS011;37671;53.258;6.460;2022-12-18T15:36:04;10.82;;;5.60;;
51588;SDS011;37671;53.258;6.460;2022-12-18T15:38:34;9.35;;;5.25;;
51588;SDS011;37671;53.258;6.460;2022-12-18T15:40:59;12.02;;;5.97;;
51588;SDS011;37671;53.258;6.460;2022-12-18T15:43:27;10.80;;;6.07;;
51588;SDS011;37671;53.258;6.460;2022-12-18T15:46:18;11.55;;;6.05;;
51588;SDS011;37671;53.258;6.460;2022-12-18T15:48:46;12.27;;;5.85;;
51588;SDS011;37671;53.258;6.460;2022-12-18T15:51:20;9.98;;;5.88;;
51588;SDS011;37671;53.258;6.460;2022-12-18T15:53:52;12.80;;;6.13;;
51588;SDS011;37671;53.258;6.460;2022-12-18T15:56:23;10.10;;;6.03;;
51588;SDS011;37671;53.258;6.460;2022-12-18T15:59:11;11.20;;;6.30;;
51588;SDS011;37671;53.258;6.460;2022-12-18T16:01:43;9.95;;;6.10;;
51588;SDS011;37671;53.258;6.460;2022-12-18T16:04:14;11.02;;;5.82;;
51588;SDS011;37671;53.258;6.460;2022-12-18T16:06:42;10.85;;;6.20;;
51588;SDS011;37671;53.258;6.460;2022-12-18T16:09:11;13.88;;;7.05;;
51588;SDS011;37671;53.258;6.460;2022-12-18T16:11:37;12.20;;;7.20;;
51588;SDS011;37671;53.258;6.460;2022-12-18T16:16:45;11.05;;;6.43;;
51588;SDS011;37671;53.258;6.460;2022-12-18T16:19:11;10.93;;;6.70;;
51588;SDS011;37671;53.258;6.460;2022-12-18T16:21:37;11.23;;;6.72;;
51588;SDS011;37671;53.258;6.460;2022-12-18T16:24:03;10.88;;;6.40;;
51588;SDS011;37671;53.258;6.460;2022-12-18T16:26:32;10.75;;;6.30;;
51588;SDS011;37671;53.258;6.460;2022-12-18T16:28:57;11.23;;;6.30;;
51588;SDS011;37671;53.258;6.460;2022-12-18T16:31:23;12.38;;;6.88;;
51588;SDS011;37671;53.258;6.460;2022-12-18T16:33:49;11.90;;;6.60;;
51588;SDS011;37671;53.258;6.460;2022-12-18T16:36:34;13.50;;;7.40;;
51588;SDS011;37671;53.258;6.460;2022-12-18T16:38:59;12.85;;;7.13;;
51588;SDS011;37671;53.258;6.460;2022-12-18T16:41:28;12.57;;;6.88;;
51588;SDS011;37671;53.258;6.460;2022-12-18T16:43:56;13.30;;;7.78;;
51588;SDS011;37671;53.258;6.460;2022-12-18T16:46:22;11.73;;;7.50;;
51588;SDS011;37671;53.258;6.460;2022-12-18T16:48:48;12.57;;;7.43;;
51588;SDS011;37671;53.258;6.460;2022-12-18T16:51:14;11.32;;;5.93;;
51588;SDS011;37671;53.258;6.460;2022-12-18T16:53:39;13.50;;;6.90;;
51588;SDS011;37671;53.258;6.460;2022-12-18T16:56:05;11.80;;;7.18;;
51588;SDS011;37671;53.258;6.460;2022-12-18T16:58:31;14.05;;;7.28;;
51588;SDS011;37671;53.258;6.460;2022-12-18T17:00:57;12.40;;;7.80;;
51588;SDS011;37671;53.258;6.460;2022-12-18T17:03:22;14.30;;;7.70;;
51588;SDS011;37671;53.258;6.460;2022-12-18T17:05:51;13.10;;;7.35;;
51588;SDS011;37671;53.258;6.460;2022-12-18T17:08:16;13.23;;;7.43;;
51588;SDS011;37671;53.258;6.460;2022-12-18T17:10:42;13.00;;;6.82;;
51588;SDS011;37671;53.258;6.460;2022-12-18T17:13:08;10.57;;;6.97;;
51588;SDS011;37671;53.258;6.460;2022-12-18T17:15:37;12.48;;;7.45;;
51588;SDS011;37671;53.258;6.460;2022-12-18T17:18:02;12.13;;;7.72;;
51588;SDS011;37671;53.258;6.460;2022-12-18T17:20:31;12.68;;;7.63;;
51588;SDS011;37671;53.258;6.460;2022-12-18T17:22:57;14.25;;;8.05;;
51588;SDS011;37671;53.258;6.460;2022-12-18T17:25:22;13.40;;;7.82;;
51588;SDS011;37671;53.258;6.460;2022-12-18T17:27:49;13.00;;;7.72;;
51588;SDS011;37671;53.258;6.460;2022-12-18T17:30:15;15.68;;;8.63;;
51588;SDS011;37671;53.258;6.460;2022-12-18T17:32:41;20.00;;;10.15;;
51588;SDS011;37671;53.258;6.460;2022-12-18T17:35:06;17.05;;;9.07;;
51588;SDS011;37671;53.258;6.460;2022-12-18T17:37:32;11.48;;;7.25;;
51588;SDS011;37671;53.258;6.460;2022-12-18T17:39:58;11.50;;;7.13;;
51588;SDS011;37671;53.258;6.460;2022-12-18T17:42:23;11.65;;;7.38;;
51588;SDS011;37671;53.258;6.460;2022-12-18T17:44:50;13.00;;;7.93;;
51588;SDS011;37671;53.258;6.460;2022-12-18T17:47:16;12.25;;;7.53;;
51588;SDS011;37671;53.258;6.460;2022-12-18T17:49:42;13.05;;;7.30;;
51588;SDS011;37671;53.258;6.460;2022-12-18T17:52:08;12.85;;;7.32;;
51588;SDS011;37671;53.258;6.460;2022-12-18T17:54:34;15.10;;;8.10;;
51588;SDS011;37671;53.258;6.460;2022-12-18T17:57:03;12.93;;;7.35;;
51588;SDS011;37671;53.258;6.460;2022-12-18T17:59:29;11.50;;;7.10;;
51588;SDS011;37671;53.258;6.460;2022-12-18T18:01:55;13.02;;;6.88;;
51588;SDS011;37671;53.258;6.460;2022-12-18T18:04:21;11.70;;;6.97;;
51588;SDS011;37671;53.258;6.460;2022-12-18T18:06:46;11.65;;;6.25;;
51588;SDS011;37671;53.258;6.460;2022-12-18T18:09:12;11.45;;;6.80;;
51588;SDS011;37671;53.258;6.460;2022-12-18T18:11:38;12.40;;;7.20;;
51588;SDS011;37671;53.258;6.460;2022-12-18T18:14:22;12.02;;;6.53;;
51588;SDS011;37671;53.258;6.460;2022-12-18T18:16:49;14.02;;;6.82;;
51588;SDS011;37671;53.258;6.460;2022-12-18T18:19:17;10.95;;;6.60;;
51588;SDS011;37671;53.258;6.460;2022-12-18T18:21:45;13.25;;;7.53;;
51588;SDS011;37671;53.258;6.460;2022-12-18T18:24:13;18.63;;;9.15;;
51588;SDS011;37671;53.258;6.460;2022-12-18T18:26:41;12.65;;;7.72;;
51588;SDS011;37671;53.258;6.460;2022-12-18T18:29:11;11.95;;;6.70;;
51588;SDS011;37671;53.258;6.460;2022-12-18T18:31:42;9.32;;;5.80;;
51588;SDS011;37671;53.258;6.460;2022-12-18T18:34:19;12.27;;;6.40;;
51588;SDS011;37671;53.258;6.460;2022-12-18T18:36:46;10.95;;;6.28;;
51588;SDS011;37671;53.258;6.460;2022-12-18T18:39:12;12.10;;;5.90;;
51588;SDS011;37671;53.258;6.460;2022-12-18T18:41:39;11.32;;;6.63;;
51588;SDS011;37671;53.258;6.460;2022-12-18T18:44:04;10.55;;;5.82;;
51588;SDS011;37671;53.258;6.460;2022-12-18T18:46:30;11.73;;;6.97;;
51588;SDS011;37671;53.258;6.460;2022-12-18T18:48:57;12.07;;;6.70;;
51588;SDS011;37671;53.258;6.460;2022-12-18T18:51:22;10.38;;;5.90;;
51588;SDS011;37671;53.258;6.460;2022-12-18T18:53:49;13.02;;;6.93;;
51588;SDS011;37671;53.258;6.460;2022-12-18T18:56:17;9.75;;;5.75;;
51588;SDS011;37671;53.258;6.460;2022-12-18T18:58:45;13.63;;;7.15;;
51588;SDS011;37671;53.258;6.460;2022-12-18T19:01:12;14.15;;;7.63;;
51588;SDS011;37671;53.258;6.460;2022-12-18T19:03:39;12.75;;;6.80;;
51588;SDS011;37671;53.258;6.460;2022-12-18T19:06:05;13.05;;;7.75;;
51588;SDS011;37671;53.258;6.460;2022-12-18T19:08:35;13.68;;;6.57;;
51588;SDS011;37671;53.258;6.460;2022-12-18T19:11:04;13.65;;;7.32;;
51588;SDS011;37671;53.258;6.460;2022-12-18T19:13:55;11.50;;;7.30;;
51588;SDS011;37671;53.258;6.460;2022-12-18T19:16:24;13.65;;;7.18;;
51588;SDS011;37671;53.258;6.460;2022-12-18T19:18:51;15.32;;;6.50;;
51588;SDS011;37671;53.258;6.460;2022-12-18T19:21:19;13.52;;;7.45;;
51588;SDS011;37671;53.258;6.460;2022-12-18T19:23:45;12.30;;;6.82;;
51588;SDS011;37671;53.258;6.460;2022-12-18T19:26:11;11.43;;;6.38;;
51588;SDS011;37671;53.258;6.460;2022-12-18T19:28:37;12.07;;;7.13;;
51588;SDS011;37671;53.258;6.460;2022-12-18T19:31:04;13.52;;;7.10;;
51588;SDS011;37671;53.258;6.460;2022-12-18T19:33:35;12.43;;;6.85;;
51588;SDS011;37671;53.258;6.460;2022-12-18T19:36:21;14.00;;;7.15;;
51588;SDS011;37671;53.258;6.460;2022-12-18T19:38:49;10.82;;;6.53;;
51588;SDS011;37671;53.258;6.460;2022-12-18T19:41:15;13.32;;;7.90;;
51588;SDS011;37671;53.258;6.460;2022-12-18T19:43:42;12.10;;;7.32;;
51588;SDS011;37671;53.258;6.460;2022-12-18T19:46:08;12.50;;;7.38;;
51588;SDS011;37671;53.258;6.460;2022-12-18T19:48:37;13.15;;;7.47;;
51588;SDS011;37671;53.258;6.460;2022-12-18T19:51:13;12.93;;;7.80;;
51588;SDS011;37671;53.258;6.460;2022-12-18T19:53:41;14.15;;;7.60;;
51588;SDS011;37671;53.258;6.460;2022-12-18T19:56:08;14.57;;;8.45;;
51588;SDS011;37671;53.258;6.460;2022-12-18T19:58:35;12.25;;;7.40;;
51588;SDS011;37671;53.258;6.460;2022-12-18T20:01:01;15.77;;;8.60;;
51588;SDS011;37671;53.258;6.460;2022-12-18T20:03:27;15.48;;;8.70;;
51588;SDS011;37671;53.258;6.460;2022-12-18T20:05:53;15.55;;;8.80;;
51588;SDS011;37671;53.258;6.460;2022-12-18T20:08:18;14.88;;;8.25;;
51588;SDS011;37671;53.258;6.460;2022-12-18T20:10:44;13.88;;;8.02;;
51588;SDS011;37671;53.258;6.460;2022-12-18T20:13:13;13.60;;;8.35;;
51588;SDS011;37671;53.258;6.460;2022-12-18T20:15:39;14.52;;;8.60;;
51588;SDS011;37671;53.258;6.460;2022-12-18T20:18:05;17.85;;;9.32;;
51588;SDS011;37671;53.258;6.460;2022-12-18T20:20:31;16.02;;;8.98;;
51588;SDS011;37671;53.258;6.460;2022-12-18T20:22:57;14.95;;;8.73;;
51588;SDS011;37671;53.258;6.460;2022-12-18T20:25:22;17.05;;;9.20;;
51588;SDS011;37671;53.258;6.460;2022-12-18T20:27:48;16.27;;;9.80;;
51588;SDS011;37671;53.258;6.460;2022-12-18T20:30:13;16.13;;;8.55;;
51588;SDS011;37671;53.258;6.460;2022-12-18T20:32:40;17.90;;;9.85;;
51588;SDS011;37671;53.258;6.460;2022-12-18T20:35:06;17.65;;;10.18;;
51588;SDS011;37671;53.258;6.460;2022-12-18T20:37:32;16.98;;;9.45;;
51588;SDS011;37671;53.258;6.460;2022-12-18T20:39:57;17.23;;;9.25;;
51588;SDS011;37671;53.258;6.460;2022-12-18T20:42:23;21.60;;;10.75;;
51588;SDS011;37671;53.258;6.460;2022-12-18T20:44:48;17.88;;;10.05;;
51588;SDS011;37671;53.258;6.460;2022-12-18T20:47:14;18.00;;;10.07;;
51588;SDS011;37671;53.258;6.460;2022-12-18T20:49:40;14.40;;;9.68;;
51588;SDS011;37671;53.258;6.460;2022-12-18T20:52:05;19.25;;;10.18;;
51588;SDS011;37671;53.258;6.460;2022-12-18T20:54:31;16.17;;;10.00;;
51588;SDS011;37671;53.258;6.460;2022-12-18T20:56:56;19.98;;;11.23;;
51588;SDS011;37671;53.258;6.460;2022-12-18T20:59:22;18.08;;;10.70;;
51588;SDS011;37671;53.258;6.460;2022-12-18T21:01:49;17.27;;;9.57;;
51588;SDS011;37671;53.258;6.460;2022-12-18T21:04:19;18.23;;;11.20;;
51588;SDS011;37671;53.258;6.460;2022-12-18T21:06:46;20.38;;;10.52;;